Summerland, South Carolina
Current Conditions -  °F | °C
As of 2:15 AM on Saturday 20 Dec 2014 (Local Time) from KAIK Reporting Station
Drizzle Drizzle  
Wind Chill: 48°   Ceiling: 6000
Heat Index: 48°   Visibility: 10mi
Dew Point: 43°   Wind: 3mph
Humidity: 82%   Direction: 100°E
Pressure: 30.18"   Gusts: NA
Location:  33.9549°N, 81.564°W
Report Text: KAIK 200715Z AUTO 10003KT 10SM -DZ BKN060 OVC080 09/06 A3018 RMK AO2 PNO
Loading
Personal Weather Stations






























Interactive Weather Map New forecast layout! Learn more

10-Day Weather Forecast

Advertisements
Track Severe Weather on mobile